createdAt,value
2018-11-02T00:00:53.045Z,86.53
2018-11-02T00:01:53.062Z,86.94
2018-11-02T00:02:53.015Z,87.24
2018-11-02T00:03:53.003Z,86.94
2018-11-02T00:04:53.010Z,87.04
2018-11-02T00:05:52.980Z,86.83
2018-11-02T00:06:52.979Z,86.32
2018-11-02T00:07:52.992Z,86.94
2018-11-02T00:08:52.948Z,86.94
2018-11-02T00:09:52.943Z,86.83
2018-11-02T00:10:52.924Z,86.94
2018-11-02T00:11:52.920Z,86.83
2018-11-02T00:12:52.904Z,86.53
2018-11-02T00:13:52.914Z,86.32
2018-11-02T00:14:52.877Z,86.49
2018-11-02T00:15:52.863Z,86.43
2018-11-02T00:16:52.861Z,86.49
2018-11-02T00:17:52.846Z,86.32
2018-11-02T00:18:52.886Z,86.59
2018-11-02T00:19:52.816Z,85.77
2018-11-02T00:20:52.810Z,86.43
2018-11-02T00:21:52.798Z,86.18
2018-11-02T00:22:52.790Z,86.29
2018-11-02T00:23:52.772Z,86.08
2018-11-02T00:24:52.809Z,85.16
2018-11-02T00:25:52.756Z,85.97
2018-11-02T00:26:52.735Z,85.26
2018-11-02T00:27:52.733Z,85.77
2018-11-02T00:28:52.711Z,85.42
2018-11-02T00:29:52.705Z,86.08
2018-11-02T00:30:52.722Z,85.36
2018-11-02T00:31:52.828Z,85.36
2018-11-02T00:32:52.676Z,85.97
2018-11-02T00:33:52.662Z,85.26
2018-11-02T00:34:52.645Z,85.16
2018-11-02T00:35:52.636Z,85.02
2018-11-02T00:36:52.647Z,85.47
2018-11-02T00:37:52.610Z,85.26
2018-11-02T00:38:52.599Z,86.18
2018-11-02T00:39:52.587Z,85.36
2018-11-02T00:40:52.577Z,85.67
2018-11-02T00:41:52.591Z,84.65
2018-11-02T00:42:52.559Z,85.16
2018-11-02T00:43:52.585Z,85.06
2018-11-02T00:44:52.537Z,85.77
2018-11-02T00:45:52.522Z,85.36
2018-11-02T00:46:52.507Z,85.16
2018-11-02T00:47:52.534Z,85.26
2018-11-02T00:48:52.482Z,85.26
2018-11-02T00:49:52.475Z,85.36
2018-11-02T00:50:52.464Z,85.57
2018-11-02T00:51:52.454Z,85.26
2018-11-02T00:52:52.438Z,84.99
2018-11-02T00:53:52.443Z,86.38
2018-11-02T00:54:52.422Z,86.12
2018-11-02T00:55:52.403Z,86.32
2018-11-02T00:56:52.395Z,85.91
2018-11-02T00:57:52.389Z,86.43
2018-11-02T00:58:52.394Z,86.63
2018-11-02T00:59:52.356Z,86.67
2018-11-02T01:00:52.349Z,86.05
2018-11-02T01:01:52.337Z,86.67
2018-11-02T01:02:52.324Z,86.67
2018-11-02T01:03:52.318Z,86.57
2018-11-02T01:04:52.319Z,86.36
2018-11-02T01:05:52.291Z,86.26
2018-11-02T01:06:52.278Z,86.77
2018-11-02T01:07:52.272Z,86.36
2018-11-02T01:08:52.250Z,86.98
2018-11-02T01:09:52.267Z,87.08
2018-11-02T01:10:52.225Z,86.98
2018-11-02T01:11:52.214Z,86.98
2018-11-02T01:12:52.214Z,87.59
2018-11-02T01:13:52.192Z,87.63
2018-11-02T01:14:52.208Z,87.63
2018-11-02T01:15:52.168Z,87.84
2018-11-02T01:16:52.273Z,87.63
2018-11-02T01:17:52.144Z,87.63
2018-11-02T01:18:52.141Z,87.84
2018-11-02T01:19:52.158Z,87.63
2018-11-02T01:20:52.109Z,87.73
2018-11-02T01:21:52.106Z,87.73
2018-11-02T01:22:52.086Z,87.02
2018-11-02T01:23:52.076Z,86.91
2018-11-02T01:24:52.069Z,86.91
2018-11-02T01:25:52.076Z,87.18
2018-11-02T01:26:52.045Z,86.26
2018-11-02T01:27:52.027Z,86.46
2018-11-02T01:28:52.016Z,86.57
2018-11-02T01:29:52.012Z,86.16
2018-11-02T01:30:51.990Z,85.75
2018-11-02T01:31:52.013Z,86.57
2018-11-02T01:32:51.966Z,85.50
2018-11-02T01:33:51.956Z,85.55
2018-11-02T01:34:51.948Z,86.05
2018-11-02T01:35:51.936Z,86.46
2018-11-02T01:36:51.939Z,86.26
2018-11-02T01:37:51.960Z,86.46
2018-11-02T01:38:51.903Z,86.46
2018-11-02T01:39:51.885Z,86.46
2018-11-02T01:40:51.876Z,85.64
2018-11-02T01:41:51.862Z,85.55
2018-11-02T01:42:51.848Z,85.34
2018-11-02T01:43:51.862Z,84.99
2018-11-02T01:44:51.826Z,85.14
2018-11-02T01:45:51.812Z,85.24
2018-11-02T01:46:51.807Z,84.42
2018-11-02T01:47:51.817Z,84.99
2018-11-02T01:48:51.800Z,85.44
2018-11-02T01:49:51.770Z,85.64
2018-11-02T01:50:51.755Z,85.34
2018-11-02T01:51:51.750Z,85.03
2018-11-02T01:52:51.733Z,85.55
2018-11-02T01:53:51.755Z,85.96
2018-11-02T01:54:51.705Z,86.16
2018-11-02T01:55:51.700Z,86.40
2018-11-02T01:56:51.686Z,86.30
2018-11-02T01:57:51.670Z,86.51
2018-11-02T01:58:51.667Z,87.12
2018-11-02T01:59:51.670Z,86.30
2018-11-02T02:00:51.642Z,86.10
2018-11-02T02:01:51.636Z,86.61
2018-11-02T02:02:51.614Z,85.79
2018-11-02T02:03:51.609Z,86.20
2018-11-02T02:04:51.615Z,86.20
2018-11-02T02:05:51.638Z,86.51
2018-11-02T02:06:51.571Z,87.02
2018-11-02T02:07:51.556Z,86.51
2018-11-02T02:08:51.543Z,85.48
2018-11-02T02:09:51.528Z,85.79
2018-11-02T02:10:51.549Z,85.99
2018-11-02T02:11:51.506Z,85.79
2018-11-02T02:12:51.513Z,86.61
2018-11-02T02:13:51.490Z,85.17
2018-11-02T02:14:51.468Z,84.42
2018-11-02T02:15:51.463Z,84.11
2018-11-02T02:16:51.447Z,84.42
2018-11-02T02:17:51.459Z,84.31
2018-11-02T02:18:51.424Z,84.42
2018-11-02T02:19:51.416Z,84.42
2018-11-02T02:20:51.401Z,84.46
2018-11-02T02:21:51.384Z,84.42
2018-11-02T02:22:51.405Z,84.63
2018-11-02T02:23:51.363Z,84.46
2018-11-02T02:24:51.371Z,84.05
2018-11-02T02:25:51.346Z,84.01
2018-11-02T02:26:51.325Z,84.01
2018-11-02T02:27:51.331Z,83.91
2018-11-02T02:28:51.310Z,83.81
2018-11-02T02:29:51.290Z,83.70
2018-11-02T02:30:51.286Z,82.98
2018-11-02T02:31:51.276Z,83.09
2018-11-02T02:32:51.275Z,82.48
2018-11-02T02:33:51.253Z,82.98
2018-11-02T02:34:51.236Z,82.57
2018-11-02T02:35:51.222Z,82.48
2018-11-02T02:36:51.213Z,82.98
2018-11-02T02:37:51.221Z,82.57
2018-11-02T02:38:51.194Z,82.89
2018-11-02T02:39:51.177Z,82.57
2018-11-02T02:40:51.162Z,81.96
2018-11-02T02:41:51.153Z,82.68
2018-11-02T02:42:51.158Z,82.07
2018-11-02T02:43:51.130Z,82.23
2018-11-02T02:44:51.163Z,82.23
2018-11-02T02:45:51.104Z,82.23
2018-11-02T02:46:51.099Z,81.82
2018-11-02T02:47:51.104Z,81.93
2018-11-02T02:48:51.075Z,81.62
2018-11-02T02:49:51.062Z,81.93
2018-11-02T02:50:51.051Z,82.34
2018-11-02T02:51:51.032Z,82.03
2018-11-02T02:52:51.047Z,82.13
2018-11-02T02:53:51.007Z,81.93
2018-11-02T02:54:51.005Z,82.13
2018-11-02T02:55:50.993Z,81.93
2018-11-02T02:56:50.980Z,81.82
2018-11-02T02:57:50.999Z,81.41
2018-11-02T02:58:50.949Z,81.72
2018-11-02T02:59:50.937Z,81.82
2018-11-02T03:00:50.937Z,81.62
2018-11-02T03:01:50.914Z,81.10
2018-11-02T03:02:50.932Z,81.68
2018-11-02T03:03:50.899Z,81.41
2018-11-02T03:04:50.881Z,81.62
2018-11-02T03:05:50.876Z,81.62
2018-11-02T03:06:50.859Z,81.82
2018-11-02T03:07:50.875Z,81.31
2018-11-02T03:08:50.839Z,81.82
2018-11-02T03:09:50.823Z,81.41
2018-11-02T03:10:50.972Z,81.21
2018-11-02T03:11:50.804Z,81.51
2018-11-02T03:12:50.809Z,81.62
2018-11-02T03:13:50.780Z,81.82
2018-11-02T03:14:50.766Z,82.13
2018-11-02T03:15:50.761Z,80.60
2018-11-02T03:16:50.741Z,81.72
2018-11-02T03:17:50.752Z,81.31
2018-11-02T03:18:50.783Z,81.21
2018-11-02T03:19:50.702Z,81.62
2018-11-02T03:20:50.703Z,81.01
2018-11-02T03:21:50.685Z,81.41
2018-11-02T03:22:50.692Z,81.41
2018-11-02T03:23:50.663Z,81.51
2018-11-02T03:24:50.651Z,80.49
2018-11-02T03:25:50.635Z,81.62
2018-11-02T03:26:50.631Z,81.10
2018-11-02T03:27:50.638Z,80.63
2018-11-02T03:28:50.605Z,80.53
2018-11-02T03:29:50.601Z,80.63
2018-11-02T03:30:50.577Z,80.39
2018-11-02T03:31:50.565Z,80.08
2018-11-02T03:32:50.641Z,79.88
2018-11-02T03:33:50.541Z,79.78
2018-11-02T03:34:50.537Z,79.88
2018-11-02T03:35:50.526Z,79.82
2018-11-02T03:36:50.513Z,79.82
2018-11-02T03:37:50.521Z,79.82
2018-11-02T03:38:50.492Z,79.91
2018-11-02T03:39:50.476Z,80.12
2018-11-02T03:40:50.466Z,80.43
2018-11-02T03:41:50.478Z,80.22
2018-11-02T03:42:50.466Z,80.12
2018-11-02T03:43:50.431Z,80.02
2018-11-02T03:44:50.440Z,80.12
2018-11-02T03:45:50.407Z,79.91
2018-11-02T03:46:50.395Z,80.12
2018-11-02T03:47:50.401Z,80.12
2018-11-02T03:48:50.370Z,80.67
2018-11-02T03:49:50.357Z,81.70
2018-11-02T03:50:50.349Z,81.38
2018-11-02T03:51:50.342Z,81.49
2018-11-02T03:52:50.357Z,81.38
2018-11-02T03:53:50.319Z,81.79
2018-11-02T03:54:50.720Z,81.59
2018-11-02T03:55:50.287Z,81.79
2018-11-02T03:56:50.360Z,81.29
2018-11-02T03:57:50.269Z,81.59
2018-11-02T03:58:50.277Z,81.59
2018-11-02T03:59:50.238Z,81.70
2018-11-02T04:00:50.234Z,80.57
2018-11-02T04:01:50.217Z,80.67
2018-11-02T04:02:50.207Z,80.77
2018-11-02T04:03:50.216Z,81.59
2018-11-02T04:04:50.189Z,80.46
2018-11-02T04:05:50.170Z,81.59
2018-11-02T04:06:50.164Z,81.70
2018-11-02T04:07:50.150Z,81.08
2018-11-02T04:08:50.150Z,81.08
2018-11-02T04:09:50.127Z,80.67
2018-11-02T04:10:50.109Z,80.57
2018-11-02T04:11:50.102Z,80.98
2018-11-02T04:12:50.083Z,80.05
2018-11-02T04:13:50.094Z,80.46
2018-11-02T04:14:50.063Z,80.57
2018-11-02T04:15:50.050Z,80.46
2018-11-02T04:16:50.043Z,80.36
2018-11-02T04:17:50.028Z,80.16
2018-11-02T04:18:50.034Z,80.46
2018-11-02T04:19:50.008Z,80.16
2018-11-02T04:20:49.986Z,80.05
2018-11-02T04:21:49.980Z,79.96
2018-11-02T04:22:49.969Z,80.46
2018-11-02T04:23:49.973Z,80.16
2018-11-02T04:24:49.952Z,80.16
2018-11-02T04:25:49.935Z,79.75
2018-11-02T04:26:49.922Z,80.30
2018-11-02T04:27:49.913Z,80.71
2018-11-02T04:28:49.921Z,80.60
2018-11-02T04:29:49.886Z,80.30
2018-11-02T04:30:49.969Z,80.09
2018-11-02T04:31:49.866Z,80.60
2018-11-02T04:32:49.846Z,80.19
2018-11-02T04:33:49.867Z,80.60
2018-11-02T04:34:49.827Z,80.71
2018-11-02T04:35:49.818Z,80.71
2018-11-02T04:36:49.797Z,80.51
2018-11-02T04:37:49.798Z,80.51
2018-11-02T04:38:49.780Z,80.40
2018-11-02T04:39:49.796Z,80.19
2018-11-02T04:40:49.758Z,79.89
2018-11-02T04:41:49.747Z,80.19
2018-11-02T04:42:49.731Z,79.68
2018-11-02T04:43:49.714Z,80.30
2018-11-02T04:44:49.712Z,80.60
2018-11-02T04:45:49.716Z,80.46
2018-11-02T04:46:49.682Z,80.40
2018-11-02T04:47:49.676Z,80.71
2018-11-02T04:48:49.655Z,80.09
2018-11-02T04:49:49.646Z,80.30
2018-11-02T04:50:49.705Z,80.81
2018-11-02T04:51:49.625Z,80.09
2018-11-02T04:52:49.610Z,80.19
2018-11-02T04:53:49.601Z,80.40
2018-11-02T04:54:49.592Z,80.60
2018-11-02T04:55:49.611Z,80.40
2018-11-02T04:56:49.567Z,80.40
2018-11-02T04:57:49.555Z,80.71
2018-11-02T04:58:49.536Z,80.40
2018-11-02T04:59:49.532Z,80.71
2018-11-02T05:00:49.513Z,81.12
2018-11-02T05:01:49.523Z,81.73
2018-11-02T05:02:49.496Z,80.74
2018-11-02T05:03:49.476Z,81.01
2018-11-02T05:04:49.474Z,80.51
2018-11-02T05:05:49.491Z,80.81
2018-11-02T05:06:49.464Z,80.85
2018-11-02T05:07:49.437Z,80.71
2018-11-02T05:08:49.422Z,80.71
2018-11-02T05:09:49.482Z,80.40
2018-11-02T05:10:49.393Z,81.84
2018-11-02T05:11:49.402Z,80.85
2018-11-02T05:12:49.377Z,80.64
2018-11-02T05:13:49.376Z,81.63
2018-11-02T05:14:49.349Z,81.73
2018-11-02T05:15:49.334Z,82.35
2018-11-02T05:16:49.352Z,83.10
2018-11-02T05:17:49.340Z,82.55
2018-11-02T05:18:49.301Z,82.39
2018-11-02T05:19:49.294Z,82.39
2018-11-02T05:20:49.275Z,82.08
2018-11-02T05:21:49.289Z,81.67
2018-11-02T05:22:49.257Z,82.18
2018-11-02T05:23:49.243Z,83.00
2018-11-02T05:24:49.230Z,82.49
2018-11-02T05:25:49.225Z,82.49
2018-11-02T05:26:49.231Z,82.08
2018-11-02T05:27:49.200Z,83.00
2018-11-02T05:28:49.181Z,81.87
2018-11-02T05:29:49.184Z,82.49
2018-11-02T05:30:49.161Z,81.87
2018-11-02T05:31:49.178Z,82.28
2018-11-02T05:32:49.133Z,82.18
2018-11-02T05:33:49.137Z,82.79
2018-11-02T05:34:49.109Z,82.90
2018-11-02T05:35:49.097Z,82.93
2018-11-02T05:36:49.116Z,83.92
2018-11-02T05:37:49.074Z,83.61
2018-11-02T05:38:49.074Z,83.76
2018-11-02T05:39:49.052Z,83.45
2018-11-02T05:40:49.038Z,84.17
2018-11-02T05:41:49.055Z,84.17
2018-11-02T05:42:49.014Z,83.45
2018-11-02T05:43:49.010Z,82.83
2018-11-02T05:44:48.996Z,82.83
2018-11-02T05:45:48.979Z,83.96
2018-11-02T05:46:48.996Z,83.61
2018-11-02T05:47:48.973Z,82.69
2018-11-02T05:48:48.954Z,82.28
2018-11-02T05:49:48.936Z,81.46
2018-11-02T05:50:48.945Z,82.28
2018-11-02T05:51:48.943Z,81.67
2018-11-02T05:52:48.917Z,81.36
2018-11-02T05:53:49.570Z,82.28
2018-11-02T05:54:48.882Z,82.08
2018-11-02T05:55:48.891Z,81.87
2018-11-02T05:56:48.883Z,80.85
2018-11-02T05:57:48.844Z,80.74
2018-11-02T05:58:48.851Z,80.33
2018-11-02T05:59:48.820Z,80.44
2018-11-02T06:00:48.804Z,80.64
2018-11-02T06:01:48.822Z,80.13
2018-11-02T06:02:48.775Z,80.03
2018-11-02T06:03:48.767Z,80.74
2018-11-02T06:04:48.760Z,80.33
2018-11-02T06:05:48.747Z,80.19
2018-11-02T06:06:48.746Z,79.93
2018-11-02T06:07:48.828Z,79.52
2018-11-02T06:08:48.722Z,80.23
2018-11-02T06:09:48.692Z,79.17
2018-11-02T06:10:48.688Z,79.48
2018-11-02T06:11:48.698Z,78.76
2018-11-02T06:12:48.664Z,78.86
2018-11-02T06:13:48.653Z,78.63
2018-11-02T06:14:48.635Z,77.73
2018-11-02T06:15:48.645Z,78.25
2018-11-02T06:16:48.741Z,78.97
2018-11-02T06:17:48.598Z,78.49
2018-11-02T06:18:48.588Z,79.52
2018-11-02T06:19:48.618Z,79.41
2018-11-02T06:20:48.586Z,79.93
2018-11-02T06:21:48.578Z,79.96
2018-11-02T06:22:48.542Z,80.17
2018-11-02T06:23:48.530Z,80.68
2018-11-02T06:24:48.547Z,82.01
2018-11-02T06:25:48.507Z,82.01
2018-11-02T06:26:48.570Z,82.12
2018-11-02T06:27:48.480Z,82.22
2018-11-02T06:28:48.469Z,82.22
2018-11-02T06:29:48.456Z,81.95
2018-11-02T06:30:48.453Z,82.32
2018-11-02T06:31:48.478Z,82.46
2018-11-02T06:32:48.555Z,82.22
2018-11-02T06:33:48.417Z,81.91
2018-11-02T06:34:48.402Z,82.97
2018-11-02T06:35:48.387Z,82.77
2018-11-02T06:36:48.399Z,82.97
2018-11-02T06:37:48.362Z,83.69
2018-11-02T06:38:48.400Z,82.83
2018-11-02T06:39:48.342Z,82.67
2018-11-02T06:40:48.327Z,83.18
2018-11-02T06:41:48.340Z,82.93
2018-11-02T06:42:48.306Z,82.12
2018-11-02T06:43:48.291Z,81.60
2018-11-02T06:44:48.315Z,82.12
2018-11-02T06:45:48.270Z,80.44
2018-11-02T06:46:48.279Z,81.81
2018-11-02T06:47:48.248Z,80.37
2018-11-02T06:48:48.234Z,80.88
2018-11-02T06:49:48.224Z,80.78
2018-11-02T06:50:48.293Z,80.27
2018-11-02T06:51:48.222Z,80.07
2018-11-02T06:52:48.187Z,80.68
2018-11-02T06:53:48.172Z,80.68
2018-11-02T06:54:48.168Z,80.58
2018-11-02T06:55:48.151Z,80.88
2018-11-02T06:56:48.162Z,80.58
2018-11-02T06:57:48.132Z,80.88
2018-11-02T06:58:48.112Z,80.68
2018-11-02T06:59:48.393Z,80.78
2018-11-02T07:00:48.091Z,80.58
2018-11-02T07:01:48.099Z,80.47
2018-11-02T07:02:48.074Z,81.09
2018-11-02T07:03:48.056Z,81.09
2018-11-02T07:04:48.052Z,81.91
2018-11-02T07:05:48.036Z,81.71
2018-11-02T07:06:48.037Z,84.37
2018-11-02T07:07:48.097Z,83.18
2018-11-02T07:08:48.000Z,84.31
2018-11-02T07:09:48.013Z,84.10
2018-11-02T07:10:47.969Z,85.03
2018-11-02T07:11:47.985Z,84.41
2018-11-02T07:12:47.948Z,85.23
2018-11-02T07:13:47.933Z,84.72
2018-11-02T07:14:47.933Z,85.23
2018-11-02T07:15:47.915Z,84.31
2018-11-02T07:16:47.921Z,85.09
2018-11-02T07:17:47.888Z,84.10
2018-11-02T07:18:47.880Z,84.41
2018-11-02T07:19:47.867Z,84.61
2018-11-02T07:20:47.854Z,84.61
2018-11-02T07:21:47.869Z,84.31
2018-11-02T07:22:47.836Z,84.61
2018-11-02T07:23:47.824Z,85.13
2018-11-02T07:24:47.821Z,84.72
2018-11-02T07:25:47.790Z,84.20
2018-11-02T07:26:47.808Z,84.72
2018-11-02T07:27:47.778Z,84.20
2018-11-02T07:28:47.760Z,83.90
2018-11-02T07:29:47.755Z,84.52
2018-11-02T07:30:47.733Z,84.41
2018-11-02T07:31:47.739Z,84.10
2018-11-02T07:32:47.716Z,83.90
2018-11-02T07:33:47.696Z,83.90
2018-11-02T07:34:47.692Z,84.10
2018-11-02T07:35:47.681Z,83.07
2018-11-02T07:36:47.680Z,83.80
2018-11-02T07:37:47.657Z,84.10
2018-11-02T07:38:47.641Z,83.86
2018-11-02T07:39:47.638Z,82.93
2018-11-02T07:40:47.617Z,83.96
2018-11-02T07:41:47.632Z,83.55
2018-11-02T07:42:47.593Z,82.83
2018-11-02T07:43:47.578Z,82.32
2018-11-02T07:44:47.588Z,82.83
2018-11-02T07:45:47.555Z,82.93
2018-11-02T07:46:47.572Z,82.49
2018-11-02T07:47:47.565Z,81.77
2018-11-02T07:48:47.526Z,82.08
2018-11-02T07:49:47.607Z,82.49
2018-11-02T07:50:47.503Z,82.49
2018-11-02T07:51:47.512Z,82.18
2018-11-02T07:52:47.476Z,82.28
2018-11-02T07:53:47.466Z,81.57
2018-11-02T07:54:47.452Z,82.18
2018-11-02T07:55:47.438Z,81.26
2018-11-02T07:56:47.456Z,81.77
2018-11-02T07:57:47.495Z,82.04
2018-11-02T07:58:47.432Z,81.67
2018-11-02T07:59:47.400Z,80.71
2018-11-02T08:00:47.379Z,80.71
2018-11-02T08:01:47.486Z,79.79
2018-11-02T08:02:47.356Z,80.09
2018-11-02T08:03:47.350Z,79.68
2018-11-02T08:04:47.336Z,79.79
2018-11-02T08:05:47.321Z,79.89
2018-11-02T08:06:47.341Z,80.19
2018-11-02T08:07:47.302Z,79.89
2018-11-02T08:08:47.296Z,79.89
2018-11-02T08:09:47.287Z,79.79
2018-11-02T08:10:47.264Z,79.93
2018-11-02T08:11:47.282Z,80.09
2018-11-02T08:12:47.241Z,79.64
2018-11-02T08:13:47.232Z,78.79
2018-11-02T08:14:47.224Z,78.89
2018-11-02T08:15:47.205Z,77.76
2018-11-02T08:16:47.224Z,77.67
2018-11-02T08:17:47.317Z,77.97
2018-11-02T08:18:47.182Z,77.67
2018-11-02T08:19:47.164Z,77.12
2018-11-02T08:20:47.155Z,75.62
2018-11-02T08:21:47.161Z,74.15
2018-11-02T08:22:47.135Z,71.46
2018-11-02T08:23:47.120Z,68.55
2018-11-02T08:24:47.105Z,64.49
2018-11-02T08:25:47.096Z,64.70
2018-11-02T08:26:47.109Z,63.24
2018-11-02T08:27:47.067Z,62.84
2018-11-02T08:28:47.065Z,61.53
2018-11-02T08:29:47.045Z,61.07
2018-11-02T08:30:47.043Z,60.03
2018-11-02T08:31:47.051Z,58.15
2018-11-02T08:32:47.013Z,57.56
2018-11-02T08:33:47.006Z,55.79
2018-11-02T08:34:46.985Z,54.10
2018-11-02T08:35:46.975Z,51.89
2018-11-02T08:36:46.996Z,53.80
2018-11-02T08:37:46.953Z,51.66
2018-11-02T08:38:46.949Z,51.64
2018-11-02T08:39:46.938Z,49.48
2018-11-02T08:40:46.917Z,48.85
2018-11-02T08:41:46.935Z,48.75
2018-11-02T08:42:46.899Z,49.33
2018-11-02T08:43:46.886Z,47.62
2018-11-02T08:44:46.878Z,50.31
2018-11-02T08:45:46.867Z,48.65
2018-11-02T08:46:46.877Z,50.20
2018-11-02T08:47:46.845Z,49.65
2018-11-02T08:48:46.826Z,52.01
2018-11-02T08:49:46.819Z,53.02
2018-11-02T08:50:46.805Z,53.92
2018-11-02T08:51:46.815Z,51.81
2018-11-02T08:52:46.785Z,54.41
2018-11-02T08:53:46.771Z,56.33
2018-11-02T08:54:46.762Z,58.13
2018-11-02T08:55:46.754Z,60.07
2018-11-02T08:56:46.763Z,62.26
2018-11-02T08:57:46.808Z,63.02
2018-11-02T08:58:47.003Z,64.69
2018-11-02T08:59:46.805Z,66.17
2018-11-02T09:00:46.697Z,66.91
2018-11-02T09:01:46.694Z,68.17
2018-11-02T09:02:46.673Z,69.42
2018-11-02T09:03:46.660Z,70.27
2018-11-02T09:04:46.693Z,69.90
2018-11-02T09:05:46.673Z,71.46
2018-11-02T09:06:46.647Z,71.53
2018-11-02T09:07:46.613Z,71.73
2018-11-02T09:08:46.598Z,70.34
2018-11-02T09:09:46.586Z,68.27
2018-11-02T09:10:46.582Z,66.38
2018-11-02T09:11:46.584Z,61.63
2018-11-02T09:12:46.549Z,58.58
2018-11-02T09:13:46.550Z,57.87
2018-11-02T09:14:46.532Z,59.52
2018-11-02T09:15:46.516Z,57.72
2018-11-02T09:16:46.531Z,57.52
2018-11-02T09:17:46.499Z,57.65
2018-11-02T09:18:46.758Z,59.32
2018-11-02T09:19:46.469Z,58.54
2018-11-02T09:20:46.467Z,61.16
2018-11-02T09:21:46.476Z,61.11
2018-11-02T09:22:46.440Z,63.02
2018-11-02T09:23:46.426Z,64.99
2018-11-02T09:24:46.415Z,65.73
2018-11-02T09:25:46.408Z,66.92
2018-11-02T09:26:46.407Z,67.57
2018-11-02T09:27:46.402Z,66.85
2018-11-02T09:28:46.366Z,67.32
2018-11-02T09:29:46.353Z,69.15
2018-11-02T09:30:46.349Z,69.29
2018-11-02T09:31:46.349Z,69.63
2018-11-02T09:32:46.330Z,69.86
2018-11-02T09:33:46.326Z,71.09
2018-11-02T09:34:46.303Z,71.43
2018-11-02T09:35:46.297Z,72.38
2018-11-02T09:36:46.292Z,72.28
2018-11-02T09:37:46.272Z,72.21
2018-11-02T09:38:46.248Z,73.74
2018-11-02T09:39:46.236Z,73.13
2018-11-02T09:40:46.234Z,72.41
2018-11-02T09:41:46.234Z,72.52
2018-11-02T09:42:46.354Z,71.87
2018-11-02T09:43:46.199Z,71.87
2018-11-02T09:44:46.178Z,71.19
2018-11-02T09:45:46.190Z,70.98
2018-11-02T09:46:46.175Z,71.43
2018-11-02T09:47:46.151Z,71.73
2018-11-02T09:48:46.131Z,71.84
2018-11-02T09:49:46.130Z,71.22
2018-11-02T09:50:46.107Z,71.91
2018-11-02T09:51:46.236Z,71.12
2018-11-02T09:52:46.092Z,71.94
2018-11-02T09:53:46.073Z,71.63
2018-11-02T09:54:46.069Z,70.98
2018-11-02T09:55:46.053Z,70.54
2018-11-02T09:56:46.063Z,70.17
2018-11-02T09:57:46.127Z,64.20
2018-11-02T09:58:46.020Z,61.56
2018-11-02T09:59:46.015Z,59.42
2018-11-02T10:00:46.000Z,56.56
2018-11-02T10:01:46.009Z,54.16
2018-11-02T10:02:45.976Z,51.73
2018-11-02T10:03:45.958Z,49.70
2018-11-02T10:04:45.953Z,49.52
2018-11-02T10:05:45.933Z,48.27
2018-11-02T10:06:45.953Z,50.45
2018-11-02T10:07:45.914Z,52.11
2018-11-02T10:08:45.904Z,53.22
2018-11-02T10:09:45.892Z,52.36
2018-11-02T10:10:45.882Z,52.34
2018-11-02T10:11:45.884Z,50.83
2018-11-02T10:12:45.861Z,49.07
2018-11-02T10:13:45.849Z,48.35
2018-11-02T10:14:45.833Z,47.27
2018-11-02T10:15:45.821Z,45.99
2018-11-02T10:16:45.833Z,46.69
2018-11-02T10:17:45.803Z,46.07
2018-11-02T10:18:45.784Z,45.89
2018-11-02T10:19:45.776Z,46.49
2018-11-02T10:20:45.768Z,45.67
2018-11-02T10:21:45.779Z,46.39
2018-11-02T10:22:45.740Z,47.09
2018-11-02T10:23:45.779Z,47.07
2018-11-02T10:24:45.726Z,45.54
2018-11-02T10:25:45.711Z,47.52
2018-11-02T10:26:45.717Z,48.27
2018-11-02T10:27:45.685Z,47.07
2018-11-02T10:28:45.676Z,44.10
2018-11-02T10:29:45.686Z,43.60
2018-11-02T10:30:45.655Z,46.76
2018-11-02T10:31:45.665Z,49.59
2018-11-02T10:32:45.629Z,49.55
2018-11-02T10:33:45.621Z,47.59
2018-11-02T10:34:45.607Z,47.77
2018-11-02T10:35:45.660Z,45.37
2018-11-02T10:36:45.612Z,44.32
2018-11-02T10:37:45.570Z,43.50
2018-11-02T10:38:45.566Z,44.40
2018-11-02T10:39:45.677Z,42.99
2018-11-02T10:40:45.536Z,43.46
2018-11-02T10:41:45.563Z,44.43
2018-11-02T10:42:45.514Z,42.49
2018-11-02T10:43:45.509Z,42.87
2018-11-02T10:44:45.506Z,40.37
2018-11-02T10:45:45.483Z,42.74
2018-11-02T10:46:45.471Z,45.08
2018-11-02T10:47:45.480Z,43.02
2018-11-02T10:48:45.450Z,45.06
2018-11-02T10:49:45.436Z,46.06
2018-11-02T10:50:45.427Z,50.12
2018-11-02T10:51:45.420Z,50.10
2018-11-02T10:52:45.419Z,49.95
2018-11-02T10:53:45.396Z,48.61
2018-11-02T10:54:45.431Z,46.44
2018-11-02T10:55:45.364Z,49.02
2018-11-02T10:56:45.458Z,48.69
2018-11-02T10:57:45.462Z,46.34
2018-11-02T10:58:45.341Z,45.47
2018-11-02T10:59:45.324Z,44.38
2018-11-02T11:00:45.355Z,44.28
2018-11-02T11:01:45.308Z,44.04
2018-11-02T11:02:45.313Z,44.06
2018-11-02T11:03:45.279Z,43.88
2018-11-02T11:04:45.267Z,41.83
2018-11-02T11:05:45.258Z,42.07
2018-11-02T11:06:45.243Z,45.10
2018-11-02T11:07:45.257Z,43.14
2018-11-02T11:08:45.224Z,43.02
2018-11-02T11:09:45.215Z,43.44
2018-11-02T11:10:45.200Z,44.20
2018-11-02T11:11:45.442Z,44.43
2018-11-02T11:12:45.508Z,44.43
2018-11-02T11:13:45.829Z,45.37
2018-11-02T11:14:45.152Z,46.80
2018-11-02T11:15:45.146Z,46.66
2018-11-02T11:16:45.131Z,46.88
2018-11-02T17:16:37.203Z,72.96
2018-11-02T17:17:37.175Z,72.81
2018-11-02T17:18:37.176Z,73.36
2018-11-02T17:19:37.152Z,73.36
2018-11-02T17:20:37.140Z,73.16
2018-11-02T17:21:37.182Z,72.85
2018-11-02T17:22:37.117Z,73.60
2018-11-02T17:23:37.137Z,73.47
2018-11-02T17:24:37.089Z,73.60
2018-11-02T17:25:37.075Z,74.02
2018-11-02T17:26:37.068Z,74.43
2018-11-02T17:27:37.055Z,74.74
2018-11-02T17:28:37.065Z,74.67
2018-11-02T17:29:37.026Z,75.26
2018-11-02T17:30:37.024Z,74.98
2018-11-02T17:31:37.004Z,75.81
2018-11-02T17:32:37.000Z,75.91
2018-11-02T17:33:37.002Z,76.01
2018-11-02T17:34:36.973Z,76.53
2018-11-02T17:35:36.963Z,76.53
2018-11-02T17:36:36.998Z,76.87
2018-11-02T17:37:36.944Z,77.04
2018-11-02T17:38:36.944Z,77.15
2018-11-02T17:39:36.919Z,77.04
2018-11-02T17:40:36.897Z,77.70
2018-11-02T17:41:36.894Z,77.49
2018-11-02T17:42:36.874Z,77.28
2018-11-02T17:43:36.946Z,77.80
2018-11-02T17:44:36.850Z,78.42
2018-11-02T17:45:36.840Z,78.66
2018-11-02T17:46:36.830Z,78.66
2018-11-02T17:47:36.852Z,78.52
2018-11-02T17:48:36.829Z,79.90
2018-11-02T17:49:36.794Z,79.18
2018-11-02T17:50:36.789Z,79.49
2018-11-02T17:51:36.769Z,79.22
2018-11-02T17:52:36.769Z,79.83
2018-11-02T17:53:36.775Z,79.73
2018-11-02T17:54:36.733Z,80.04
2018-11-02T17:55:36.730Z,79.63
2018-11-02T17:56:36.708Z,79.08
2018-11-02T17:57:36.697Z,79.22
2018-11-02T17:58:36.715Z,79.18
2018-11-02T17:59:36.873Z,79.22
2018-11-02T18:00:36.667Z,79.63
2018-11-02T18:01:36.661Z,80.15
2018-11-02T18:02:36.643Z,80.35
2018-11-02T18:03:36.659Z,80.49
2018-11-02T18:04:36.615Z,80.46
2018-11-02T18:05:36.614Z,80.56
2018-11-02T18:06:36.592Z,80.87
2018-11-02T18:07:36.589Z,80.97
2018-11-02T18:08:36.709Z,81.42
2018-11-02T18:09:36.578Z,81.73
2018-11-02T18:10:36.554Z,80.87
2018-11-02T18:11:36.596Z,81.63
2018-11-02T18:12:36.531Z,81.52
2018-11-02T18:13:36.514Z,81.42
2018-11-02T18:14:36.659Z,81.21
2018-11-02T18:15:36.494Z,81.21
2018-11-02T18:16:36.478Z,81.42
2018-11-02T18:17:36.469Z,81.21
2018-11-02T18:18:36.486Z,81.67
2018-11-02T18:19:36.461Z,81.77
2018-11-02T18:20:36.436Z,82.50
2018-11-02T18:21:36.421Z,81.63
2018-11-02T18:22:36.407Z,82.70
2018-11-02T18:23:36.392Z,82.50
2018-11-02T18:24:36.412Z,82.50
2018-11-02T18:25:36.372Z,82.01
2018-11-02T18:26:36.362Z,82.64
2018-11-02T18:27:36.353Z,83.15
2018-11-02T18:28:36.336Z,83.05
2018-11-02T18:29:36.348Z,83.36
2018-11-02T18:30:36.311Z,84.01
2018-11-02T18:31:36.305Z,84.53
2018-11-02T18:32:36.286Z,84.84
2018-11-02T18:33:36.280Z,84.29
2018-11-02T18:34:36.316Z,84.74
2018-11-02T18:35:36.425Z,85.26
2018-11-02T18:36:36.247Z,84.95
2018-11-02T18:37:36.236Z,85.47
2018-11-02T18:38:36.217Z,85.26
2018-11-02T18:39:36.230Z,85.47
2018-11-02T18:40:36.198Z,84.70
2018-11-02T18:41:36.181Z,84.64
2018-11-02T18:42:36.178Z,84.95
2018-11-02T18:43:36.164Z,84.39
2018-11-02T18:44:36.171Z,84.70
2018-11-02T18:45:36.143Z,83.63
2018-11-02T18:46:36.122Z,83.01
2018-11-02T18:47:36.203Z,82.60
2018-11-02T18:48:36.098Z,83.01
2018-11-02T18:49:36.107Z,82.90
2018-11-02T18:50:36.077Z,83.01
2018-11-02T18:51:36.064Z,83.84